createdAt,value
2018-04-10T00:00:15.586Z,978.86
2018-04-10T00:02:08.476Z,978.87
2018-04-10T00:03:08.340Z,978.91
2018-04-10T00:05:01.192Z,978.84
2018-04-10T00:06:01.088Z,978.85
2018-04-10T00:07:54.004Z,978.87
2018-04-10T00:08:53.837Z,978.86
2018-04-10T00:10:46.746Z,978.79
2018-04-10T00:11:46.589Z,978.81
2018-04-10T00:13:39.964Z,978.80
2018-04-10T00:14:39.343Z,978.79
2018-04-10T00:16:32.432Z,978.78
2018-04-10T00:17:32.203Z,978.82
2018-04-10T00:19:25.041Z,978.79
2018-04-10T00:20:24.947Z,978.75
2018-04-10T00:22:17.793Z,978.77
2018-04-10T00:23:17.686Z,978.76
2018-04-10T00:25:10.629Z,978.80
2018-04-10T00:26:10.550Z,978.83
2018-04-10T00:28:03.401Z,978.81
2018-04-10T00:29:03.283Z,978.84
2018-04-10T00:30:56.144Z,978.82
2018-04-10T00:31:56.056Z,978.80
2018-04-10T00:33:48.898Z,978.76
2018-04-10T00:34:48.799Z,978.72
2018-04-10T00:36:41.627Z,978.79
2018-04-10T00:37:41.532Z,978.75
2018-04-10T00:39:34.402Z,978.77
2018-04-10T00:40:34.287Z,978.73
2018-04-10T00:42:27.151Z,978.74
2018-04-10T00:43:27.032Z,978.76
2018-04-10T00:45:19.902Z,978.72
2018-04-10T00:46:19.786Z,978.77
2018-04-10T00:48:12.672Z,978.74
2018-04-10T00:49:12.567Z,978.73
2018-04-10T00:51:05.404Z,978.79
2018-04-10T00:52:05.347Z,978.75
2018-04-10T00:53:58.650Z,978.72
2018-04-10T00:54:58.120Z,978.74
2018-04-10T00:56:50.941Z,978.75
2018-04-10T00:57:50.781Z,978.77
2018-04-10T00:59:43.636Z,978.78
2018-04-10T01:00:43.547Z,978.79
2018-04-10T01:02:36.490Z,978.74
2018-04-10T01:03:36.399Z,978.76
2018-04-10T01:05:29.239Z,978.74
2018-04-10T01:06:29.139Z,978.70
2018-04-10T01:08:22.014Z,978.73
2018-04-10T01:09:21.899Z,978.71
2018-04-10T01:11:14.752Z,978.76
2018-04-10T01:12:14.639Z,978.72
2018-04-10T01:14:08.009Z,978.72
2018-04-10T01:15:07.928Z,978.70
2018-04-10T01:17:01.289Z,978.71
2018-04-10T01:18:01.158Z,978.68
2018-04-10T01:19:54.035Z,978.69
2018-04-10T01:20:53.935Z,978.65
2018-04-10T01:22:47.294Z,978.65
2018-04-10T01:23:47.193Z,978.65
2018-04-10T01:25:40.014Z,978.71
2018-04-10T01:26:39.915Z,978.69
2018-04-10T01:28:32.798Z,978.72
2018-04-10T01:29:32.728Z,978.73
2018-04-10T01:31:25.516Z,978.69
2018-04-10T01:32:26.540Z,978.68
2018-04-10T01:34:19.818Z,978.69
2018-04-10T01:35:19.701Z,978.70
2018-04-10T01:37:23.707Z,978.61
2018-04-10T01:38:23.627Z,978.64
2018-04-10T01:40:16.470Z,978.65
2018-04-10T01:41:16.382Z,978.65
2018-04-10T01:43:09.725Z,978.65
2018-04-10T01:44:09.628Z,978.64
2018-04-10T01:46:02.981Z,978.62
2018-04-10T01:47:02.395Z,978.59
2018-04-10T01:48:56.065Z,978.59
2018-04-10T01:49:55.963Z,978.61
2018-04-10T01:51:48.816Z,978.60
2018-04-10T01:52:48.685Z,978.61
2018-04-10T01:54:41.711Z,978.63
2018-04-10T01:55:41.458Z,978.60
2018-04-10T01:57:34.311Z,978.65
2018-04-10T01:58:34.192Z,978.61
2018-04-10T02:00:27.100Z,978.59
2018-04-10T02:01:26.976Z,978.64
2018-04-10T02:03:19.811Z,978.64
2018-04-10T02:04:19.728Z,978.64
2018-04-10T02:06:12.588Z,978.61
2018-04-10T02:07:12.442Z,978.64
2018-04-10T02:09:05.288Z,978.67
2018-04-10T02:10:05.198Z,978.63
2018-04-10T02:11:58.087Z,978.63
2018-04-10T02:14:10.854Z,978.70
2018-04-10T02:15:10.775Z,978.70
2018-04-10T02:17:03.643Z,978.72
2018-04-10T02:18:03.587Z,978.69
2018-04-10T02:19:56.343Z,978.65
2018-04-10T02:20:56.289Z,978.65
2018-04-10T02:22:49.132Z,978.61
2018-04-10T02:23:49.000Z,978.62
2018-04-10T02:25:42.354Z,978.66
2018-04-10T02:26:42.285Z,978.63
2018-04-10T02:28:35.155Z,978.62
2018-04-10T02:29:35.007Z,978.67
2018-04-10T02:31:27.882Z,978.64
2018-04-10T02:32:27.764Z,978.67
2018-04-10T02:34:20.642Z,978.66
2018-04-10T02:35:20.548Z,978.65
2018-04-10T02:37:13.395Z,978.70
2018-04-10T02:38:13.261Z,978.68
2018-04-10T02:40:06.113Z,978.67
2018-04-10T02:41:06.048Z,978.64
2018-04-10T02:42:58.856Z,978.61
2018-04-10T02:43:58.761Z,978.67
2018-04-10T02:45:52.884Z,978.65
2018-04-10T02:46:52.602Z,978.63
2018-04-10T02:48:45.380Z,978.63
2018-04-10T02:49:45.283Z,978.65
2018-04-10T02:51:38.170Z,978.67
2018-04-10T02:52:38.039Z,978.64
2018-04-10T02:54:30.930Z,978.67
2018-04-10T02:55:30.793Z,978.65
2018-04-10T02:57:24.180Z,978.61
2018-04-10T02:58:23.571Z,978.60
2018-04-10T03:00:16.382Z,978.65
2018-04-10T03:01:16.280Z,978.66
2018-04-10T03:03:09.241Z,978.64
2018-04-10T03:04:09.135Z,978.62
2018-04-10T03:06:02.003Z,978.65
2018-04-10T03:07:01.885Z,978.65
2018-04-10T03:08:54.758Z,978.63
2018-04-10T03:09:54.627Z,978.63
2018-04-10T03:11:47.486Z,978.62
2018-04-10T03:12:47.381Z,978.66
2018-04-10T03:14:40.239Z,978.65
2018-04-10T03:15:40.132Z,978.71
2018-04-10T03:17:32.976Z,978.71
2018-04-10T03:18:32.887Z,978.69
2018-04-10T03:20:25.738Z,978.68
2018-04-10T03:21:25.632Z,978.69
2018-04-10T03:23:18.479Z,978.73
2018-04-10T03:24:18.390Z,978.67
2018-04-10T03:26:11.235Z,978.69
2018-04-10T03:27:11.180Z,978.67
2018-04-10T03:29:03.991Z,978.64
2018-04-10T03:30:03.884Z,978.65
2018-04-10T03:31:56.753Z,978.62
2018-04-10T03:32:56.630Z,978.65
2018-04-10T03:34:49.477Z,978.67
2018-04-10T03:35:49.516Z,978.67
2018-04-10T03:37:42.375Z,978.67
2018-04-10T03:38:42.239Z,978.65
2018-04-10T03:40:36.615Z,978.67
2018-04-10T03:41:36.523Z,978.64
2018-04-10T03:43:29.474Z,978.65
2018-04-10T03:44:29.377Z,978.67
2018-04-10T03:46:22.292Z,978.68
2018-04-10T03:47:22.126Z,978.69
2018-04-10T03:49:15.103Z,978.76
2018-04-10T03:50:14.970Z,978.75
2018-04-10T03:52:07.763Z,978.74
2018-04-10T03:53:07.696Z,978.76
2018-04-10T03:55:00.571Z,978.72
2018-04-10T03:56:00.471Z,978.72
2018-04-10T03:57:53.370Z,978.69
2018-04-10T03:58:53.226Z,978.70
2018-04-10T04:00:46.077Z,978.71
2018-04-10T04:01:45.985Z,978.65
2018-04-10T04:03:38.848Z,978.71
2018-04-10T04:04:39.289Z,978.73
2018-04-10T04:06:31.576Z,978.75
2018-04-10T04:07:31.479Z,978.71
2018-04-10T04:09:24.527Z,978.72
2018-04-10T04:10:24.225Z,978.73
2018-04-10T04:12:17.159Z,978.76
2018-04-10T04:13:17.073Z,978.74
2018-04-10T04:15:21.431Z,978.75
2018-04-10T04:16:21.081Z,978.74
2018-04-10T04:18:13.952Z,978.78
2018-04-10T04:19:13.850Z,978.78
2018-04-10T04:21:06.581Z,978.75
2018-04-10T04:22:06.496Z,978.74
2018-04-10T04:23:59.257Z,978.75
2018-04-10T04:24:59.155Z,978.72
2018-04-10T04:26:52.011Z,978.71
2018-04-10T04:27:51.783Z,978.71
2018-04-10T04:29:44.569Z,978.66
2018-04-10T04:30:44.436Z,978.67
2018-04-10T04:32:37.292Z,978.66
2018-04-10T04:33:37.189Z,978.70
2018-04-10T04:35:30.578Z,978.70
2018-04-10T04:36:30.446Z,978.74
2018-04-10T04:38:23.244Z,978.71
2018-04-10T04:39:23.109Z,978.70
2018-04-10T04:41:15.964Z,978.75
2018-04-10T04:42:15.837Z,978.72
2018-04-10T04:44:09.102Z,978.73
2018-04-10T04:45:08.994Z,978.68
2018-04-10T04:47:01.854Z,978.65
2018-04-10T04:48:01.741Z,978.63
2018-04-10T04:49:54.485Z,978.60
2018-04-10T04:50:54.389Z,978.62
2018-04-10T04:52:47.299Z,978.58
2018-04-10T04:53:47.174Z,978.60
2018-04-10T04:55:40.041Z,978.59
2018-04-10T04:56:39.928Z,978.61
2018-04-10T04:58:32.758Z,978.52
2018-04-10T04:59:32.677Z,978.59
2018-04-10T05:01:25.380Z,978.57
2018-04-10T05:02:25.313Z,978.60
2018-04-10T05:04:18.558Z,978.56
2018-04-10T05:05:18.443Z,978.56
2018-04-10T05:07:11.295Z,978.56
2018-04-10T05:08:11.189Z,978.54
2018-04-10T05:10:03.966Z,978.60
2018-04-10T05:11:03.859Z,978.62
2018-04-10T05:12:56.619Z,978.67
2018-04-10T05:13:56.498Z,978.69
2018-04-10T05:15:49.478Z,978.70
2018-04-10T05:16:49.276Z,978.69
2018-04-10T05:18:41.983Z,978.73
2018-04-10T05:19:41.899Z,978.75
2018-04-10T05:21:34.643Z,978.80
2018-04-10T05:22:34.531Z,978.83
2018-04-10T05:24:27.300Z,978.85
2018-04-10T05:25:27.193Z,978.84
2018-04-10T05:27:20.046Z,978.81
2018-04-10T05:28:19.821Z,978.82
2018-04-10T05:30:12.569Z,978.85
2018-04-10T05:31:12.483Z,978.87
2018-04-10T05:33:05.241Z,978.91
2018-04-10T05:34:05.113Z,978.89
2018-04-10T05:35:57.906Z,978.90
2018-04-10T05:36:57.763Z,978.92
2018-04-10T05:38:50.788Z,978.90
2018-04-10T05:39:50.629Z,978.94
2018-04-10T05:41:43.377Z,978.95
2018-04-10T05:42:43.261Z,978.92
2018-04-10T05:44:36.121Z,978.91
2018-04-10T05:45:36.004Z,978.95
2018-04-10T05:47:28.860Z,978.94
2018-04-10T05:48:28.767Z,978.98
2018-04-10T05:50:21.530Z,978.94
2018-04-10T05:51:21.405Z,978.96
2018-04-10T05:53:18.420Z,978.98
2018-04-10T05:54:17.409Z,978.93
2018-04-10T05:56:11.660Z,978.88
2018-04-10T05:57:11.548Z,978.91
2018-04-10T05:59:04.774Z,978.92
2018-04-10T06:00:04.678Z,978.90
2018-04-10T06:01:57.559Z,978.88
2018-04-10T06:02:57.421Z,978.87
2018-04-10T06:04:50.170Z,978.89
2018-04-10T06:05:50.078Z,978.83
2018-04-10T06:07:42.846Z,978.86
2018-04-10T06:08:42.746Z,978.89
2018-04-10T06:10:35.589Z,978.93
2018-04-10T06:11:35.466Z,978.91
2018-04-10T06:13:28.754Z,979.00
2018-04-10T06:14:28.623Z,978.95
2018-04-10T06:16:21.397Z,979.01
2018-04-10T06:17:21.289Z,978.94
2018-04-10T06:19:14.051Z,978.98
2018-04-10T06:20:13.939Z,979.00
2018-04-10T06:22:06.707Z,979.01
2018-04-10T06:23:06.657Z,978.95
2018-04-10T06:25:04.644Z,978.92
2018-04-10T06:26:02.471Z,978.96
2018-04-10T06:27:56.598Z,978.93
2018-04-10T06:28:56.275Z,978.92
2018-04-10T06:30:49.121Z,978.90
2018-04-10T06:31:49.013Z,978.89
2018-04-10T06:33:42.001Z,978.88
2018-04-10T06:34:41.895Z,978.87
2018-04-10T06:36:34.623Z,978.87
2018-04-10T06:37:34.516Z,978.87
2018-04-10T06:39:27.277Z,978.86
2018-04-10T06:40:27.188Z,978.88
2018-04-10T06:42:19.939Z,978.87
2018-04-10T06:43:19.822Z,978.87
2018-04-10T06:45:12.592Z,978.95
2018-04-10T06:46:12.471Z,978.97
2018-04-10T06:48:05.736Z,978.97
2018-04-10T06:49:05.629Z,978.97
2018-04-10T06:50:58.403Z,978.99
2018-04-10T06:51:58.271Z,978.98
2018-04-10T06:53:52.621Z,978.98
2018-04-10T06:54:51.937Z,979.01
2018-04-10T06:56:44.704Z,979.02
2018-04-10T06:57:44.586Z,979.05
2018-04-10T06:59:37.457Z,979.02
2018-04-10T07:00:37.332Z,978.99
2018-04-10T07:02:30.592Z,978.98
2018-04-10T07:03:30.521Z,978.99
2018-04-10T07:05:23.900Z,979.00
2018-04-10T07:06:23.670Z,978.97
2018-04-10T07:08:16.943Z,978.96
2018-04-10T07:09:16.819Z,978.91
2018-04-10T07:11:09.708Z,978.88
2018-04-10T07:12:09.570Z,978.88
2018-04-10T07:14:02.324Z,978.89
2018-04-10T07:15:02.213Z,978.86
2018-04-10T07:16:55.591Z,978.90
2018-04-10T07:17:55.454Z,978.87
2018-04-10T07:19:48.624Z,978.92
2018-04-10T07:20:48.528Z,978.98
2018-04-10T07:22:41.418Z,978.94
2018-04-10T07:23:41.277Z,978.96
2018-04-10T07:25:34.019Z,978.95
2018-04-10T07:26:33.938Z,978.94
2018-04-10T07:28:28.303Z,979.00
2018-04-10T07:29:27.731Z,979.01
2018-04-10T07:31:20.543Z,979.02
2018-04-10T07:32:20.453Z,979.01
2018-04-10T07:34:13.225Z,978.99
2018-04-10T07:35:13.113Z,979.04
2018-04-10T07:37:06.472Z,979.03
2018-04-10T07:38:06.496Z,979.01
2018-04-10T07:39:59.632Z,979.01
2018-04-10T07:40:59.524Z,979.01
2018-04-10T07:42:52.258Z,979.00
2018-04-10T07:43:52.188Z,979.00
2018-04-10T07:45:45.035Z,979.06
2018-04-10T07:46:44.822Z,979.04
2018-04-10T07:48:37.573Z,979.06
2018-04-10T07:49:37.468Z,979.11
2018-04-10T07:51:30.327Z,979.09
2018-04-10T07:52:30.211Z,979.09
2018-04-10T07:54:22.992Z,979.11
2018-04-10T07:55:22.857Z,979.14
2018-04-10T07:57:15.743Z,979.11
2018-04-10T07:58:15.604Z,979.08
2018-04-10T08:00:08.460Z,979.12
2018-04-10T08:01:08.365Z,979.11
2018-04-10T08:03:01.228Z,979.12
2018-04-10T08:04:01.105Z,979.06
2018-04-10T08:05:53.964Z,979.08
2018-04-10T08:06:53.759Z,979.08
2018-04-10T08:08:46.620Z,979.05
2018-04-10T08:09:46.508Z,979.06
2018-04-10T08:11:39.255Z,979.11
2018-04-10T08:12:39.168Z,979.09
2018-04-10T08:14:32.425Z,979.13
2018-04-10T08:15:32.341Z,979.21
2018-04-10T08:17:25.146Z,979.21
2018-04-10T08:18:25.056Z,979.20
2018-04-10T08:20:17.923Z,979.19
2018-04-10T08:21:17.806Z,979.24
2018-04-10T08:23:10.556Z,979.24
2018-04-10T08:24:10.481Z,979.21
2018-04-10T08:26:03.328Z,979.21
2018-04-10T08:27:03.215Z,979.17
2018-04-10T08:28:56.046Z,979.17
2018-04-10T08:29:55.979Z,979.17
2018-04-10T08:31:48.877Z,979.21
2018-04-10T08:32:48.699Z,979.21
2018-04-10T08:34:41.541Z,979.19
2018-04-10T08:35:41.452Z,979.20
2018-04-10T08:37:34.308Z,979.23
2018-04-10T08:38:34.200Z,979.21
2018-04-10T08:40:27.518Z,979.25
2018-04-10T08:41:27.366Z,979.22
2018-04-10T08:43:20.203Z,979.26
2018-04-10T08:44:20.103Z,979.25
2018-04-10T08:46:12.872Z,979.25
2018-04-10T08:47:12.768Z,979.28
2018-04-10T08:49:05.595Z,979.29
2018-04-10T08:50:05.502Z,979.28
2018-04-10T08:51:58.395Z,979.29
2018-04-10T08:52:58.253Z,979.29
2018-04-10T08:54:51.030Z,979.34
2018-04-10T08:55:50.902Z,979.30
2018-04-10T08:57:43.776Z,979.36
2018-04-10T08:58:43.643Z,979.37
2018-04-10T09:00:36.493Z,979.39
2018-04-10T09:01:36.400Z,979.36
2018-04-10T09:03:29.313Z,979.38
2018-04-10T09:04:29.053Z,979.38
2018-04-10T09:06:21.888Z,979.44
2018-04-10T09:07:21.816Z,979.44
2018-04-10T09:09:14.683Z,979.41
2018-04-10T09:10:14.542Z,979.38
2018-04-10T09:12:07.331Z,979.44
2018-04-10T09:13:07.238Z,979.48
2018-04-10T09:15:00.591Z,979.47
2018-04-10T09:16:00.495Z,979.46
2018-04-10T09:17:53.721Z,979.43
2018-04-10T09:18:53.638Z,979.40
2018-04-10T09:20:46.508Z,979.43
2018-04-10T09:21:46.470Z,979.44
2018-04-10T09:23:39.297Z,979.46
2018-04-10T09:24:39.158Z,979.52
2018-04-10T09:26:32.912Z,979.53
2018-04-10T09:27:32.189Z,979.52
2018-04-10T09:29:24.773Z,979.49
2018-04-10T09:30:26.640Z,979.45
2018-04-10T09:32:18.929Z,979.46
2018-04-10T09:33:19.580Z,979.46
2018-04-10T09:35:11.693Z,979.42
2018-04-10T09:36:11.709Z,979.42
2018-04-10T09:38:05.019Z,979.45
2018-04-10T09:39:04.845Z,979.42
2018-04-10T09:40:57.656Z,979.43
2018-04-10T09:41:57.560Z,979.41
2018-04-10T09:43:50.427Z,979.45
2018-04-10T09:44:50.305Z,979.44
2018-04-10T09:46:43.169Z,979.45
2018-04-10T09:47:43.192Z,979.43
2018-04-10T09:49:35.925Z,979.43
2018-04-10T09:50:35.820Z,979.41
2018-04-10T09:52:28.674Z,979.40
2018-04-10T09:53:28.564Z,979.33
2018-04-10T09:55:21.427Z,979.39
2018-04-10T09:56:21.329Z,979.31
2018-04-10T09:58:14.205Z,979.29
2018-04-10T09:59:14.064Z,979.30
2018-04-10T10:01:06.961Z,979.31
2018-04-10T10:02:06.836Z,979.33
2018-04-10T10:04:00.060Z,979.42
2018-04-10T10:04:59.974Z,979.37
2018-04-10T10:06:52.830Z,979.36
2018-04-10T10:07:52.726Z,979.37
2018-04-10T10:09:45.980Z,979.49
2018-04-10T10:10:45.877Z,979.48
2018-04-10T10:12:38.752Z,979.50
2018-04-10T10:13:38.641Z,979.50
2018-04-10T10:15:31.485Z,979.51
2018-04-10T10:16:31.391Z,979.55
2018-04-10T10:18:24.260Z,979.56
2018-04-10T10:19:24.133Z,979.58
2018-04-10T10:21:16.980Z,979.54
2018-04-10T10:22:16.897Z,979.52
2018-04-10T10:24:09.738Z,979.56
2018-04-10T10:25:09.635Z,979.53
2018-04-10T10:27:10.987Z,979.60
2018-04-10T10:28:10.880Z,979.56
2018-04-10T10:30:03.741Z,979.58
2018-04-10T10:31:03.695Z,979.59
2018-04-10T10:32:56.472Z,979.60
2018-04-10T10:33:56.397Z,979.58
2018-04-10T10:35:49.756Z,979.54
2018-04-10T10:36:49.187Z,979.57
2018-04-10T10:38:41.957Z,979.61
2018-04-10T10:39:41.876Z,979.59
2018-04-10T10:41:34.741Z,979.63
2018-04-10T10:42:34.647Z,979.67
2018-04-10T10:44:27.459Z,979.73
2018-04-10T10:45:27.365Z,979.73
2018-04-10T10:47:20.257Z,979.71
2018-04-10T10:48:20.115Z,979.66
2018-04-10T10:50:12.959Z,979.71
2018-04-10T10:51:12.876Z,979.69
2018-04-10T10:53:05.745Z,979.74
2018-04-10T10:54:05.635Z,979.74
2018-04-10T10:55:58.475Z,979.64
2018-04-10T10:56:58.403Z,979.65
2018-04-10T10:58:51.249Z,979.64
2018-04-10T10:59:51.143Z,979.61
2018-04-10T11:01:43.980Z,979.59
2018-04-10T11:02:43.868Z,979.59
2018-04-10T11:04:36.758Z,979.59
2018-04-10T11:05:36.618Z,979.57
2018-04-10T11:07:29.511Z,979.60
2018-04-10T11:08:29.367Z,979.59
2018-04-10T11:10:22.251Z,979.62
2018-04-10T11:11:22.119Z,979.61
2018-04-10T11:13:15.368Z,979.61
2018-04-10T11:14:15.283Z,979.54
2018-04-10T11:16:08.181Z,979.59
2018-04-10T11:17:08.084Z,979.54
2018-04-10T11:19:00.876Z,979.57
2018-04-10T11:20:00.775Z,979.60
2018-04-10T11:21:53.629Z,979.59
2018-04-10T11:22:53.523Z,979.60
2018-04-10T11:24:46.438Z,979.61
2018-04-10T11:25:46.281Z,979.62
2018-04-10T11:27:39.667Z,979.64
2018-04-10T11:28:39.542Z,979.64
2018-04-10T11:30:32.378Z,979.63
2018-04-10T11:31:32.379Z,979.64
2018-04-10T11:33:25.158Z,979.65
2018-04-10T11:34:25.035Z,979.67
2018-04-10T11:36:17.888Z,979.68
2018-04-10T11:37:17.840Z,979.70
2018-04-10T11:39:10.678Z,979.65
2018-04-10T11:40:10.537Z,979.68
2018-04-10T11:42:03.412Z,979.66
2018-04-10T11:43:03.281Z,979.63
2018-04-10T11:44:56.171Z,979.69
2018-04-10T11:45:56.053Z,979.68
2018-04-10T11:47:48.875Z,979.67
2018-04-10T11:48:48.798Z,979.69
2018-04-10T11:50:41.712Z,979.72
2018-04-10T11:51:41.539Z,979.76
2018-04-10T11:53:34.892Z,979.70
2018-04-10T11:54:34.805Z,979.68
2018-04-10T11:56:27.649Z,979.72
2018-04-10T11:57:27.554Z,979.68
2018-04-10T11:59:20.403Z,979.64
2018-04-10T12:00:20.315Z,979.66
2018-04-10T12:02:13.167Z,979.64
2018-04-10T12:03:13.047Z,979.66
2018-04-10T12:05:06.398Z,979.67
2018-04-10T12:06:06.305Z,979.62
2018-04-10T12:07:59.177Z,979.67
2018-04-10T12:08:59.089Z,979.66
2018-04-10T12:10:51.899Z,979.69
2018-04-10T12:11:51.829Z,979.72
2018-04-10T12:13:44.692Z,979.69
2018-04-10T12:14:44.572Z,979.75
2018-04-10T12:16:37.903Z,979.73
2018-04-10T12:17:37.823Z,979.77
2018-04-10T12:19:31.217Z,979.66
2018-04-10T12:20:31.096Z,979.70
2018-04-10T12:22:23.939Z,979.66
2018-04-10T12:23:23.834Z,979.61
2018-04-10T12:25:16.732Z,979.68
2018-04-10T12:26:16.579Z,979.70
2018-04-10T12:28:09.427Z,979.62
2018-04-10T12:29:09.371Z,979.70
2018-04-10T12:31:02.313Z,979.62
2018-04-10T12:32:02.184Z,979.64
2018-04-10T12:33:55.039Z,979.63
2018-04-10T12:34:54.932Z,979.62
2018-04-10T12:36:47.821Z,979.51
2018-04-10T12:37:47.687Z,979.56
2018-04-10T12:39:40.518Z,979.52
2018-04-10T12:40:40.440Z,979.55
2018-04-10T12:42:33.305Z,979.53
2018-04-10T12:43:33.204Z,979.53
2018-04-10T12:45:26.015Z,979.46
2018-04-10T12:46:25.941Z,979.55
2018-04-10T12:48:18.822Z,979.49
2018-04-10T12:49:18.682Z,979.45
2018-04-10T12:51:11.512Z,979.42
2018-04-10T12:52:11.433Z,979.42
2018-04-10T12:54:04.303Z,979.47
2018-04-10T12:55:04.198Z,979.45
2018-04-10T12:56:57.027Z,979.47
2018-04-10T12:57:56.944Z,979.41
2018-04-10T12:59:49.830Z,979.48
2018-04-10T13:00:49.795Z,979.51
2018-04-10T13:02:42.533Z,979.45
2018-04-10T13:03:42.434Z,979.41
2018-04-10T13:05:35.303Z,979.40
2018-04-10T13:06:35.194Z,979.46
2018-04-10T13:08:28.024Z,979.39
2018-04-10T13:09:27.933Z,979.42
2018-04-10T13:11:20.892Z,979.52
2018-04-10T13:12:20.784Z,979.48
2018-04-10T13:14:13.634Z,979.48
2018-04-10T13:15:13.535Z,979.47
2018-04-10T13:17:06.394Z,979.50
2018-04-10T13:18:06.327Z,979.49
2018-04-10T13:19:59.734Z,979.49
2018-04-10T13:20:59.556Z,979.47
2018-04-10T13:22:52.916Z,979.55
2018-04-10T13:23:52.800Z,979.53
2018-04-10T13:25:45.660Z,979.52
2018-04-10T13:26:45.569Z,979.49
2018-04-10T13:28:38.407Z,979.44
2018-04-10T13:29:38.314Z,979.44
2018-04-10T13:31:31.543Z,979.45
2018-04-10T13:32:31.494Z,979.46
2018-04-10T13:34:24.313Z,979.41
2018-04-10T13:35:24.207Z,979.45
2018-04-10T13:37:17.103Z,979.38
2018-04-10T13:38:16.961Z,979.39
2018-04-10T13:40:10.216Z,979.45
2018-04-10T13:41:10.119Z,979.42
2018-04-10T13:43:02.988Z,979.39
2018-04-10T13:44:02.906Z,979.36
2018-04-10T13:45:55.819Z,979.33
2018-04-10T13:46:55.718Z,979.38
2018-04-10T13:48:49.020Z,979.44
2018-04-10T13:49:48.878Z,979.39
2018-04-10T13:51:41.725Z,979.39
2018-04-10T13:52:41.653Z,979.39
2018-04-10T13:54:34.507Z,979.36
2018-04-10T13:55:34.413Z,979.39
2018-04-10T13:57:27.741Z,979.44
2018-04-10T13:58:27.762Z,979.45
2018-04-10T14:00:20.496Z,979.42
2018-04-10T14:01:20.603Z,979.34
2018-04-10T14:03:13.232Z,979.36
2018-04-10T14:04:13.137Z,979.35
2018-04-10T14:06:07.044Z,979.35
2018-04-10T14:07:06.935Z,979.29
2018-04-10T14:09:01.314Z,979.27
2018-04-10T14:10:01.212Z,979.23
2018-04-10T14:11:54.045Z,979.26
2018-04-10T14:12:53.954Z,979.24
2018-04-10T14:14:46.901Z,979.28
2018-04-10T14:15:46.704Z,979.25
2018-04-10T14:17:39.577Z,979.25
2018-04-10T14:18:39.449Z,979.27
2018-04-10T14:20:33.821Z,979.19
2018-04-10T14:21:33.755Z,979.21
2018-04-10T14:23:27.649Z,979.18
2018-04-10T14:24:27.519Z,979.25
2018-04-10T14:26:20.355Z,979.23
2018-04-10T14:27:20.255Z,979.19
2018-04-10T14:29:13.123Z,979.21
2018-04-10T14:30:13.020Z,979.19
2018-04-10T14:32:05.941Z,979.14
2018-04-10T14:33:05.855Z,979.12
2018-04-10T14:34:58.718Z,979.10
2018-04-10T14:35:58.607Z,979.16
2018-04-10T14:37:51.469Z,979.12
2018-04-10T14:38:51.366Z,979.16
2018-04-10T14:40:44.830Z,979.14
2018-04-10T14:41:44.713Z,979.15
2018-04-10T14:43:37.856Z,979.14
2018-04-10T14:44:37.493Z,979.14
2018-04-10T14:46:30.331Z,979.10
2018-04-10T14:47:30.244Z,979.07
2018-04-10T14:49:23.073Z,979.11
2018-04-10T14:50:22.978Z,979.03
2018-04-10T14:54:00.492Z,979.08
2018-04-10T14:54:54.384Z,979.11
2018-04-10T14:57:55.939Z,979.11
2018-04-10T14:58:55.866Z,979.13
2018-04-10T15:01:13.827Z,979.15
2018-04-10T15:02:13.723Z,979.14
2018-04-10T15:05:52.660Z,979.16
2018-04-10T15:06:45.143Z,979.17
2018-04-10T15:08:45.794Z,979.20
2018-04-10T15:09:45.516Z,979.22
2018-04-10T15:11:50.906Z,979.21
2018-04-10T15:12:50.463Z,979.17
2018-04-10T15:14:43.326Z,979.19
2018-04-10T15:15:43.204Z,979.20
2018-04-10T15:17:36.756Z,979.23
2018-04-10T15:18:36.672Z,979.24
2018-04-10T15:20:30.280Z,979.14
2018-04-10T15:21:29.425Z,979.17
2018-04-10T15:23:22.255Z,979.20
2018-04-10T15:24:22.195Z,979.22
2018-04-10T15:26:15.138Z,979.21
2018-04-10T15:27:15.024Z,979.22
2018-04-10T15:29:08.392Z,979.17
2018-04-10T15:30:07.983Z,979.17
2018-04-10T15:32:00.850Z,979.22
2018-04-10T15:33:00.741Z,979.19
2018-04-10T15:34:53.622Z,979.26
2018-04-10T15:35:53.606Z,979.20
2018-04-10T15:37:46.360Z,979.22
2018-04-10T15:38:46.250Z,979.22
2018-04-10T15:40:39.081Z,979.23
2018-04-10T15:41:38.977Z,979.22
2018-04-10T15:43:31.837Z,979.22
2018-04-10T15:44:31.737Z,979.25
2018-04-10T15:46:24.554Z,979.19
2018-04-10T15:47:24.490Z,979.21
2018-04-10T15:49:17.450Z,979.21
2018-04-10T15:50:17.342Z,979.21
2018-04-10T15:52:10.761Z,979.22
2018-04-10T15:53:10.592Z,979.26
2018-04-10T15:55:03.460Z,979.26
2018-04-10T15:56:03.362Z,979.24
2018-04-10T15:57:56.181Z,979.27
2018-04-10T15:58:56.088Z,979.22
2018-04-10T16:00:48.933Z,979.23
2018-04-10T16:01:48.852Z,979.24
2018-04-10T16:03:41.775Z,979.23
2018-04-10T16:04:41.736Z,979.21
2018-04-10T16:06:34.536Z,979.23
2018-04-10T16:07:34.446Z,979.20
2018-04-10T16:09:27.644Z,979.13
2018-04-10T16:10:27.309Z,979.11
2018-04-10T16:12:20.144Z,979.08
2018-04-10T16:13:20.052Z,979.07
2018-04-10T16:15:13.416Z,979.05
2018-04-10T16:16:13.313Z,979.05
2018-04-10T16:18:06.176Z,979.00
2018-04-10T16:19:06.060Z,979.01
2018-04-10T16:20:59.004Z,978.99
2018-04-10T16:21:58.913Z,979.01
2018-04-10T16:23:51.778Z,978.99
2018-04-10T16:24:51.680Z,979.00
2018-04-10T16:26:44.592Z,978.92
2018-04-10T16:27:44.424Z,978.86
2018-04-10T16:29:37.801Z,978.89
2018-04-10T16:30:37.670Z,978.88
2018-04-10T16:32:30.513Z,978.87
2018-04-10T16:33:30.423Z,978.89
2018-04-10T16:35:23.269Z,978.87
2018-04-10T16:36:23.176Z,978.90
2018-04-10T16:38:16.010Z,978.88
2018-04-10T16:39:15.941Z,978.84
2018-04-10T16:41:08.775Z,978.87
2018-04-10T16:42:08.663Z,978.87
2018-04-10T16:44:01.526Z,978.90
2018-04-10T16:45:01.415Z,978.89
2018-04-10T16:46:54.259Z,978.87
2018-04-10T16:47:54.166Z,978.89
2018-04-10T16:49:47.098Z,978.98
2018-04-10T16:50:47.020Z,978.93
2018-04-10T16:52:39.871Z,978.97
2018-04-10T16:53:39.809Z,978.93
2018-04-10T16:55:32.616Z,978.99
2018-04-10T16:56:32.519Z,978.98
2018-04-10T16:58:25.374Z,978.99
2018-04-10T16:59:25.287Z,978.96
2018-04-10T17:01:18.110Z,978.98
2018-04-10T17:02:18.024Z,978.98
2018-04-10T17:04:11.085Z,978.90
2018-04-10T17:05:10.762Z,978.95
2018-04-10T17:07:03.606Z,978.96
2018-04-10T17:08:03.566Z,978.96
2018-04-10T17:09:56.471Z,978.93
2018-04-10T17:10:56.402Z,978.99
2018-04-10T17:12:49.802Z,978.97
2018-04-10T17:13:49.767Z,978.98
2018-04-10T17:15:47.600Z,978.98
2018-04-10T17:16:47.494Z,978.98
2018-04-10T17:18:40.915Z,979.00
2018-04-10T17:19:40.245Z,979.01
2018-04-10T17:21:33.083Z,979.04
2018-04-10T17:22:33.015Z,979.03
2018-04-10T17:24:25.945Z,979.02
2018-04-10T17:25:25.857Z,979.03
2018-04-10T17:27:18.775Z,979.05
2018-04-10T17:28:18.706Z,979.02
2018-04-10T17:30:11.587Z,979.02
2018-04-10T17:31:11.461Z,978.98
2018-04-10T17:33:04.403Z,978.99
2018-04-10T17:34:04.310Z,978.95
2018-04-10T17:35:57.248Z,978.97
2018-04-10T17:36:57.180Z,978.96
2018-04-10T17:38:50.021Z,978.96
2018-04-10T17:39:49.900Z,978.93
2018-04-10T17:41:42.758Z,978.96
2018-04-10T17:42:42.687Z,978.98
2018-04-10T17:44:36.513Z,978.98
2018-04-10T17:45:36.422Z,979.04
2018-04-10T17:47:29.294Z,979.02
2018-04-10T17:48:29.193Z,979.04
2018-04-10T17:50:22.016Z,979.03
2018-04-10T17:51:21.929Z,979.04
2018-04-10T17:53:14.791Z,979.07
2018-04-10T17:54:14.718Z,979.10
2018-04-10T17:56:07.516Z,979.12
2018-04-10T17:57:07.431Z,979.16
2018-04-10T17:59:00.387Z,979.17
2018-04-10T18:00:00.275Z,979.17
2018-04-10T18:01:53.110Z,979.17
2018-04-10T18:02:53.033Z,979.16
2018-04-10T18:04:45.878Z,979.18